createdAt,value
2023-04-27T00:00:12.296Z,109.00
2023-04-27T00:01:12.841Z,109.00
2023-04-27T00:02:13.039Z,109.00
2023-04-27T00:03:13.652Z,109.00
2023-04-27T00:04:14.093Z,109.00
2023-04-27T00:05:15.231Z,109.00
2023-04-27T00:06:15.580Z,109.00
2023-04-27T00:07:15.882Z,109.00
2023-04-27T00:08:16.465Z,109.00
2023-04-27T00:09:17.002Z,109.00
2023-04-27T00:10:17.231Z,109.00
2023-04-27T00:10:26.649Z,109.00
2023-04-27T00:11:27.092Z,109.00
2023-04-27T00:12:27.542Z,109.00
2023-04-27T00:13:28.464Z,109.00
2023-04-27T00:14:29.083Z,109.00
2023-04-27T00:15:29.931Z,109.00
2023-04-27T00:16:30.561Z,109.00
2023-04-27T00:17:30.957Z,109.00
2023-04-27T00:18:31.502Z,109.00
2023-04-27T00:19:31.988Z,109.00
2023-04-27T00:20:33.736Z,109.00
2023-04-27T00:22:11.436Z,109.00
2023-04-27T00:23:11.860Z,109.00
2023-04-27T00:24:12.601Z,109.00
2023-04-27T00:25:13.132Z,109.00
2023-04-27T00:26:13.741Z,109.00
2023-04-27T00:27:14.279Z,109.00
2023-04-27T00:28:14.758Z,109.00
2023-04-27T00:29:15.105Z,109.00
2023-04-27T00:30:15.195Z,109.00
2023-04-27T00:31:15.691Z,109.00
2023-04-27T00:32:15.970Z,109.00
2023-04-27T00:33:16.252Z,109.00
2023-04-27T00:33:29.407Z,109.00
2023-04-27T00:34:28.406Z,109.00
2023-04-27T00:35:29.159Z,109.00
2023-04-27T00:36:29.877Z,109.00
2023-04-27T00:37:30.687Z,109.00
2023-04-27T00:38:31.515Z,109.00
2023-04-27T00:39:31.684Z,109.00
2023-04-27T00:40:32.205Z,109.00
2023-04-27T00:41:31.993Z,109.00
2023-04-27T00:42:32.905Z,109.00
2023-04-27T00:43:33.472Z,109.00
2023-04-27T00:44:33.845Z,109.00
2023-04-27T00:45:33.959Z,109.00
2023-04-27T00:45:46.710Z,109.00
2023-04-27T00:46:46.853Z,109.00
2023-04-27T00:47:47.575Z,109.00
2023-04-27T00:48:48.252Z,109.00
2023-04-27T00:49:48.889Z,109.00
2023-04-27T00:50:49.895Z,109.00
2023-04-27T00:51:50.162Z,109.00
2023-04-27T00:52:50.308Z,109.00
2023-04-27T00:53:50.978Z,109.00
2023-04-27T00:54:51.320Z,109.00
2023-04-27T00:55:51.733Z,109.00
2023-04-27T00:56:52.145Z,109.00
2023-04-27T00:57:01.836Z,109.00
2023-04-27T00:58:02.286Z,109.00
2023-04-27T00:59:02.638Z,109.00
2023-04-27T01:00:03.448Z,109.00
2023-04-27T01:01:04.121Z,109.00
2023-04-27T01:02:04.384Z,109.00
2023-04-27T01:03:05.128Z,109.00
2023-04-27T01:04:05.068Z,109.00
2023-04-27T01:05:05.316Z,109.00
2023-04-27T01:06:05.338Z,109.00
2023-04-27T01:07:06.224Z,109.00
2023-04-27T01:08:06.553Z,109.00
2023-04-27T01:09:07.200Z,109.00
2023-04-27T01:10:08.922Z,109.00
2023-04-27T01:11:08.365Z,109.00
2023-04-27T01:11:21.341Z,109.00
2023-04-27T01:12:20.801Z,109.00
2023-04-27T01:13:22.537Z,109.00
2023-04-27T01:14:22.181Z,109.00
2023-04-27T01:15:22.640Z,109.00
2023-04-27T01:16:23.063Z,109.00
2023-04-27T01:17:23.527Z,109.00
2023-04-27T01:18:24.233Z,109.00
2023-04-27T01:19:25.125Z,109.00
2023-04-27T01:20:27.204Z,109.00
2023-04-27T01:21:25.952Z,109.00
2023-04-27T01:21:36.128Z,109.00
2023-04-27T01:22:36.716Z,109.00
2023-04-27T01:23:37.227Z,109.00
2023-04-27T01:24:39.080Z,109.00
2023-04-27T01:25:38.594Z,109.00
2023-04-27T01:26:39.244Z,109.00
2023-04-27T01:27:40.060Z,109.00
2023-04-27T01:28:40.516Z,109.00
2023-04-27T01:29:40.983Z,109.00
2023-04-27T01:30:41.369Z,109.00
2023-04-27T01:31:41.891Z,109.00
2023-04-27T01:31:51.440Z,109.00
2023-04-27T01:32:52.113Z,109.00
2023-04-27T01:33:52.954Z,109.00
2023-04-27T01:34:53.549Z,109.00
2023-04-27T01:35:53.870Z,109.00
2023-04-27T01:36:54.448Z,109.00
2023-04-27T01:37:54.839Z,109.00
2023-04-27T01:38:55.545Z,109.00
2023-04-27T01:39:56.107Z,109.00
2023-04-27T01:40:56.621Z,109.00
2023-04-27T01:41:58.662Z,109.00
2023-04-27T01:42:57.751Z,109.00
2023-04-27T01:43:11.751Z,109.00
2023-04-27T01:44:11.989Z,109.00
2023-04-27T01:45:12.793Z,109.00
2023-04-27T01:46:13.523Z,109.00
2023-04-27T01:47:13.602Z,109.00
2023-04-27T01:48:14.200Z,109.00
2023-04-27T01:49:14.903Z,109.00
2023-04-27T01:50:15.049Z,109.00
2023-04-27T01:51:15.406Z,109.00
2023-04-27T01:52:15.928Z,109.00
2023-04-27T01:53:16.747Z,109.00
2023-04-27T01:54:17.625Z,109.00
2023-04-27T01:55:18.133Z,109.00
2023-04-27T01:56:18.951Z,109.00
2023-04-27T01:56:29.227Z,109.00
2023-04-27T01:57:29.727Z,109.00
2023-04-27T01:58:30.567Z,109.00
2023-04-27T01:59:31.574Z,109.00
2023-04-27T02:00:32.519Z,109.00
2023-04-27T02:01:34.338Z,109.00
2023-04-27T02:02:33.847Z,109.00
2023-04-27T02:03:34.618Z,109.00
2023-04-27T02:04:35.283Z,109.00
2023-04-27T02:05:35.328Z,109.00
2023-04-27T02:06:37.066Z,109.00
2023-04-27T02:07:36.980Z,109.00
2023-04-27T02:08:38.776Z,109.00
2023-04-27T02:08:48.895Z,109.00
2023-04-27T02:09:49.089Z,109.00
2023-04-27T02:10:49.934Z,109.00
2023-04-27T02:11:50.381Z,109.00
2023-04-27T02:12:51.079Z,109.00
2023-04-27T02:13:53.029Z,109.00
2023-04-27T02:14:52.649Z,109.00
2023-04-27T02:15:52.914Z,109.00
2023-04-27T02:16:53.634Z,109.00
2023-04-27T02:17:55.246Z,109.00
2023-04-27T02:18:54.599Z,109.00
2023-04-27T02:19:55.516Z,109.00
2023-04-27T02:20:56.199Z,109.00
2023-04-27T02:21:05.710Z,109.00
2023-04-27T02:22:05.742Z,109.00
2023-04-27T02:23:07.761Z,109.00
2023-04-27T02:24:06.733Z,109.00
2023-04-27T02:25:07.171Z,109.00
2023-04-27T02:26:07.954Z,109.00
2023-04-27T02:27:08.412Z,109.00
2023-04-27T02:28:09.322Z,109.00
2023-04-27T02:29:10.220Z,109.00
2023-04-27T02:30:11.026Z,109.00
2023-04-27T02:31:11.147Z,109.00
2023-04-27T02:32:11.583Z,109.00
2023-04-27T02:32:25.963Z,109.00
2023-04-27T02:33:25.760Z,109.00
2023-04-27T02:34:26.008Z,109.00
2023-04-27T02:35:26.418Z,109.00
2023-04-27T02:36:27.801Z,109.00
2023-04-27T02:37:27.497Z,109.00
2023-04-27T02:38:28.129Z,109.00
2023-04-27T02:39:28.310Z,109.00
2023-04-27T02:40:29.492Z,109.00
2023-04-27T02:41:29.367Z,109.00
2023-04-27T02:41:38.883Z,109.00
2023-04-27T02:42:39.200Z,109.00
2023-04-27T02:43:39.344Z,109.00
2023-04-27T02:44:39.364Z,109.00
2023-04-27T02:45:39.883Z,109.00
2023-04-27T02:46:40.238Z,109.00
2023-04-27T02:47:40.556Z,109.00
2023-04-27T02:48:41.441Z,109.00
2023-04-27T02:49:42.357Z,109.00
2023-04-27T02:50:42.660Z,109.00
2023-04-27T02:51:43.450Z,109.00
2023-04-27T02:52:44.107Z,109.00
2023-04-27T02:53:44.593Z,109.00
2023-04-27T02:54:44.935Z,109.00
2023-04-27T02:54:54.125Z,109.00
2023-04-27T02:55:54.966Z,109.00
2023-04-27T02:56:55.317Z,109.00
2023-04-27T02:57:55.812Z,109.00
2023-04-27T02:58:56.222Z,109.00
2023-04-27T02:59:56.604Z,109.00
2023-04-27T03:00:57.084Z,109.00
2023-04-27T03:01:57.347Z,109.00
2023-04-27T03:02:57.987Z,109.00
2023-04-27T03:03:58.386Z,109.00
2023-04-27T03:04:58.377Z,109.00
2023-04-27T03:05:07.133Z,109.00
2023-04-27T03:06:07.503Z,109.00
2023-04-27T03:07:07.926Z,109.00
2023-04-27T03:08:08.307Z,109.00
2023-04-27T03:09:08.765Z,109.00
2023-04-27T03:10:09.086Z,109.00
2023-04-27T03:11:09.995Z,109.00
2023-04-27T03:12:10.476Z,109.00
2023-04-27T03:13:10.973Z,109.00
2023-04-27T03:14:11.479Z,109.00
2023-04-27T03:15:11.881Z,109.00
2023-04-27T03:15:22.530Z,109.00
2023-04-27T03:16:22.967Z,109.00
2023-04-27T03:17:23.219Z,109.00
2023-04-27T03:18:24.000Z,109.00
2023-04-27T03:19:24.855Z,109.00
2023-04-27T03:20:25.377Z,109.00
2023-04-27T03:21:26.060Z,109.00
2023-04-27T03:22:26.361Z,109.00
2023-04-27T03:23:27.261Z,109.00
2023-04-27T03:24:27.493Z,109.00
2023-04-27T03:25:28.010Z,109.00
2023-04-27T03:25:38.142Z,109.00
2023-04-27T03:26:39.181Z,109.00
2023-04-27T03:27:38.551Z,109.00
2023-04-27T03:28:39.293Z,109.00
2023-04-27T03:29:39.733Z,109.00
2023-04-27T03:30:39.985Z,109.00
2023-04-27T03:31:40.087Z,109.00
2023-04-27T03:32:40.352Z,109.00
2023-04-27T03:33:41.175Z,109.00
2023-04-27T03:34:41.131Z,109.00
2023-04-27T03:35:41.706Z,109.00
2023-04-27T03:36:42.316Z,109.00
2023-04-27T03:36:50.958Z,109.00
2023-04-27T03:37:51.462Z,109.00
2023-04-27T03:38:51.737Z,109.00
2023-04-27T03:39:52.469Z,109.00
2023-04-27T03:40:52.644Z,109.00
2023-04-27T03:41:53.120Z,109.00
2023-04-27T03:42:53.389Z,109.00
2023-04-27T03:43:54.210Z,109.00
2023-04-27T03:44:54.764Z,109.00
2023-04-27T03:45:54.844Z,109.00
2023-04-27T03:46:55.155Z,109.00
2023-04-27T03:47:55.623Z,109.00
2023-04-27T03:48:04.317Z,109.00
2023-04-27T03:49:04.640Z,109.00
2023-04-27T03:50:05.008Z,109.00
2023-04-27T03:51:05.072Z,109.00
2023-04-27T03:52:05.509Z,109.00
2023-04-27T03:53:06.016Z,109.00
2023-04-27T03:54:06.832Z,109.00
2023-04-27T03:55:07.264Z,109.00
2023-04-27T03:56:08.193Z,109.00
2023-04-27T03:57:08.394Z,109.00
2023-04-27T03:58:09.286Z,109.00
2023-04-27T03:59:09.682Z,109.00
2023-04-27T03:59:18.813Z,109.00
2023-04-27T04:00:19.382Z,109.00
2023-04-27T04:01:19.868Z,109.00
2023-04-27T04:02:20.529Z,109.00
2023-04-27T04:03:22.214Z,109.00
2023-04-27T04:04:21.445Z,109.00
2023-04-27T04:05:21.853Z,109.00
2023-04-27T04:06:22.193Z,109.00
2023-04-27T04:07:23.019Z,109.00
2023-04-27T04:08:23.411Z,109.00
2023-04-27T04:09:24.207Z,109.00
2023-04-27T04:10:24.732Z,109.00
2023-04-27T04:10:33.362Z,109.00
2023-04-27T04:11:33.717Z,109.00
2023-04-27T04:12:34.603Z,109.00
2023-04-27T04:13:34.996Z,109.00
2023-04-27T04:14:35.374Z,109.00
2023-04-27T04:15:36.107Z,109.00
2023-04-27T04:16:36.442Z,109.00
2023-04-27T04:17:37.101Z,109.00
2023-04-27T04:18:37.240Z,109.00
2023-04-27T04:19:38.576Z,109.00
2023-04-27T04:20:38.025Z,109.00
2023-04-27T04:21:38.587Z,109.00
2023-04-27T04:21:48.331Z,109.00
2023-04-27T04:22:48.804Z,109.00
2023-04-27T04:23:49.364Z,109.00
2023-04-27T04:24:50.089Z,109.00
2023-04-27T04:25:50.757Z,109.00
2023-04-27T04:26:51.268Z,109.00
2023-04-27T04:27:51.698Z,109.00
2023-04-27T04:28:52.131Z,109.00
2023-04-27T04:29:52.346Z,109.00
2023-04-27T04:30:53.823Z,109.00
2023-04-27T04:31:53.330Z,109.00
2023-04-27T04:32:53.679Z,109.00
2023-04-27T04:33:54.389Z,109.00
2023-04-27T04:34:03.486Z,109.00
2023-04-27T04:35:03.882Z,109.00
2023-04-27T04:36:04.815Z,109.00
2023-04-27T04:37:05.230Z,109.00
2023-04-27T04:38:05.944Z,109.00
2023-04-27T04:39:06.470Z,109.00
2023-04-27T04:40:06.773Z,109.00
2023-04-27T04:41:08.334Z,109.00
2023-04-27T04:42:07.711Z,109.00
2023-04-27T04:43:08.169Z,109.00
2023-04-27T04:44:08.521Z,109.00
2023-04-27T04:45:08.995Z,109.00
2023-04-27T04:46:09.463Z,109.00
2023-04-27T04:46:24.648Z,109.00
2023-04-27T04:47:25.567Z,109.00
2023-04-27T04:48:25.672Z,109.00
2023-04-27T04:49:26.250Z,109.00
2023-04-27T04:50:27.224Z,109.00
2023-04-27T04:51:27.979Z,109.00
2023-04-27T04:52:28.467Z,109.00
2023-04-27T04:53:29.954Z,109.00
2023-04-27T04:54:29.400Z,109.00
2023-04-27T04:55:31.008Z,109.00
2023-04-27T04:56:30.329Z,109.00
2023-04-27T04:57:30.726Z,109.00
2023-04-27T04:58:31.604Z,109.00
2023-04-27T04:58:40.743Z,109.00
2023-04-27T04:59:41.024Z,109.00
2023-04-27T05:00:41.372Z,109.00
2023-04-27T05:01:41.766Z,109.00
2023-04-27T05:02:42.551Z,109.00
2023-04-27T05:03:43.253Z,109.00
2023-04-27T05:04:43.458Z,109.00
2023-04-27T05:05:43.718Z,109.00
2023-04-27T05:06:44.432Z,109.00
2023-04-27T05:07:45.005Z,109.00
2023-04-27T05:08:45.568Z,109.00
2023-04-27T05:09:45.987Z,109.00
2023-04-27T05:10:46.509Z,109.00
2023-04-27T05:10:55.130Z,109.00
2023-04-27T05:11:55.622Z,109.00
2023-04-27T05:12:56.149Z,109.00
2023-04-27T05:13:56.613Z,109.00
2023-04-27T05:14:57.082Z,109.00
2023-04-27T05:15:57.513Z,109.00
2023-04-27T05:16:58.072Z,109.00
2023-04-27T05:17:59.590Z,109.00
2023-04-27T05:18:58.929Z,109.00
2023-04-27T05:19:59.279Z,109.00
2023-04-27T05:20:59.722Z,109.00
2023-04-27T05:21:08.835Z,109.00
2023-04-27T05:22:09.299Z,109.00
2023-04-27T05:23:09.793Z,109.00
2023-04-27T05:24:10.306Z,109.00
2023-04-27T05:25:11.784Z,109.00
2023-04-27T05:26:11.166Z,109.00
2023-04-27T05:27:11.541Z,109.00
2023-04-27T05:28:13.214Z,109.00
2023-04-27T05:29:12.726Z,109.00
2023-04-27T05:30:12.821Z,109.00
2023-04-27T05:31:13.465Z,109.00
2023-04-27T05:31:22.098Z,109.00
2023-04-27T05:32:22.494Z,109.00
2023-04-27T05:33:22.980Z,109.00
2023-04-27T05:34:24.016Z,109.00
2023-04-27T05:35:24.280Z,109.00
2023-04-27T05:36:24.963Z,109.00
2023-04-27T05:37:25.295Z,109.00
2023-04-27T05:38:26.202Z,109.00
2023-04-27T05:39:26.639Z,109.00
2023-04-27T05:40:27.159Z,109.00
2023-04-27T05:41:27.541Z,109.00
2023-04-27T05:42:28.063Z,109.00
2023-04-27T05:42:38.280Z,109.00
2023-04-27T05:43:37.774Z,109.00
2023-04-27T05:44:38.180Z,109.00
2023-04-27T05:45:38.616Z,109.00
2023-04-27T05:46:39.080Z,109.00
2023-04-27T05:47:39.638Z,109.00
2023-04-27T05:48:39.844Z,109.00
2023-04-27T05:49:40.222Z,109.00
2023-04-27T05:50:40.685Z,109.00
2023-04-27T05:51:41.428Z,109.00
2023-04-27T05:52:41.991Z,109.00
2023-04-27T05:53:42.458Z,109.00
2023-04-27T05:54:42.859Z,109.00
2023-04-27T05:54:52.129Z,109.00
2023-04-27T05:55:52.494Z,109.00
2023-04-27T05:56:52.888Z,109.00
2023-04-27T05:58:04.600Z,109.00
2023-04-27T05:58:53.889Z,109.00
2023-04-27T05:59:54.392Z,109.00
2023-04-27T06:00:54.438Z,109.00
2023-04-27T06:01:54.806Z,109.00
2023-04-27T06:02:55.546Z,109.00
2023-04-27T06:03:55.915Z,109.00
2023-04-27T06:04:55.841Z,109.00
2023-04-27T06:05:58.653Z,109.00
2023-04-27T06:06:57.083Z,109.00
2023-04-27T06:07:06.500Z,109.00
2023-04-27T06:08:06.744Z,109.00
2023-04-27T06:09:07.151Z,109.00
2023-04-27T06:10:08.075Z,109.00
2023-04-27T06:11:08.612Z,109.00
2023-04-27T06:12:09.400Z,109.00
2023-04-27T06:13:09.974Z,109.00
2023-04-27T06:14:11.464Z,109.00
2023-04-27T06:15:10.771Z,109.00
2023-04-27T06:16:11.350Z,109.00
2023-04-27T06:17:11.662Z,109.00
2023-04-27T06:17:21.352Z,109.00
2023-04-27T06:18:21.979Z,109.00
2023-04-27T06:19:22.452Z,109.00
2023-04-27T06:20:22.799Z,109.00
2023-04-27T06:21:23.241Z,109.00
2023-04-27T06:22:23.693Z,109.00
2023-04-27T06:23:23.707Z,109.00
2023-04-27T06:24:24.067Z,109.00
2023-04-27T06:25:27.040Z,109.00
2023-04-27T06:26:24.617Z,109.00
2023-04-27T06:27:25.157Z,109.00
2023-04-27T06:28:25.482Z,109.00
2023-04-27T06:29:26.373Z,109.00
2023-04-27T06:29:36.048Z,109.00
2023-04-27T06:30:38.919Z,109.00
2023-04-27T06:31:37.026Z,109.00
2023-04-27T06:32:37.522Z,109.00
2023-04-27T06:33:38.219Z,109.00
2023-04-27T06:34:38.560Z,109.00
2023-04-27T06:35:39.295Z,109.00
2023-04-27T06:36:39.731Z,109.00
2023-04-27T06:37:39.715Z,109.00
2023-04-27T06:38:40.132Z,109.00
2023-04-27T06:39:40.652Z,109.00
2023-04-27T06:40:40.959Z,109.00
2023-04-27T06:41:41.392Z,109.00
2023-04-27T06:41:49.991Z,109.00
2023-04-27T06:42:50.510Z,109.00
2023-04-27T06:43:51.153Z,109.00
2023-04-27T06:44:51.995Z,109.00
2023-04-27T06:45:52.457Z,109.00
2023-04-27T06:46:53.109Z,109.00
2023-04-27T06:47:53.574Z,109.00
2023-04-27T06:48:54.026Z,109.00
2023-04-27T06:49:54.426Z,109.00
2023-04-27T06:50:54.877Z,109.00
2023-04-27T06:51:55.139Z,109.00
2023-04-27T06:52:56.147Z,109.00
2023-04-27T06:53:04.749Z,109.00
2023-04-27T06:54:05.077Z,109.00
2023-04-27T06:55:06.637Z,109.00
2023-04-27T06:56:06.367Z,109.00
2023-04-27T06:57:07.237Z,109.00
2023-04-27T06:58:07.717Z,109.00
2023-04-27T06:59:08.605Z,109.00
2023-04-27T07:00:09.011Z,109.00
2023-04-27T07:01:09.639Z,109.00
2023-04-27T07:02:10.033Z,109.00
2023-04-27T07:03:11.005Z,109.00
2023-04-27T07:04:11.726Z,109.00
2023-04-27T07:05:11.863Z,109.00
2023-04-27T07:05:22.623Z,109.00
2023-04-27T07:06:23.450Z,109.00
2023-04-27T07:07:24.096Z,109.00
2023-04-27T07:08:24.367Z,109.00
2023-04-27T07:09:27.819Z,109.00
2023-04-27T07:10:25.736Z,109.00
2023-04-27T07:11:26.390Z,109.00
2023-04-27T07:12:27.152Z,106.47
2023-04-27T07:13:27.746Z,102.58
2023-04-27T07:14:28.179Z,96.21
2023-04-27T07:15:28.968Z,91.48
2023-04-27T07:16:29.459Z,90.04
2023-04-27T07:17:30.286Z,85.74
2023-04-27T07:17:41.025Z,76.07
2023-04-27T07:18:43.453Z,75.13
2023-04-27T07:19:42.812Z,72.75
2023-04-27T07:20:43.225Z,66.01
2023-04-27T07:21:43.943Z,66.07
2023-04-27T07:22:44.748Z,64.52
2023-04-27T07:23:45.077Z,60.32
2023-04-27T07:24:46.048Z,61.24
2023-04-27T07:25:46.898Z,62.12
2023-04-27T07:26:47.621Z,58.26
2023-04-27T07:27:48.261Z,59.44
2023-04-27T07:27:57.899Z,61.88
2023-04-27T07:28:58.270Z,62.56
2023-04-27T07:29:58.633Z,59.66
2023-04-27T07:30:59.045Z,58.02
2023-04-27T07:31:59.560Z,57.94
2023-04-27T07:32:59.523Z,58.21
2023-04-27T07:33:59.496Z,56.24
2023-04-27T07:35:01.171Z,56.79
2023-04-27T07:36:01.124Z,56.89
2023-04-27T07:37:02.202Z,57.04
2023-04-27T07:38:02.910Z,56.07
2023-04-27T07:39:04.479Z,57.15
2023-04-27T07:40:03.758Z,56.93
2023-04-27T07:41:04.645Z,56.17
2023-04-27T07:42:04.993Z,56.60
2023-04-27T07:42:13.789Z,56.57
2023-04-27T07:43:15.727Z,56.94
2023-04-27T07:44:15.272Z,58.12
2023-04-27T07:45:15.714Z,57.83
2023-04-27T07:46:16.520Z,58.70
2023-04-27T07:47:16.853Z,58.99
2023-04-27T07:48:17.442Z,61.50
2023-04-27T07:49:17.468Z,61.19
2023-04-27T07:50:17.460Z,62.44
2023-04-27T07:51:17.784Z,61.36
2023-04-27T07:52:18.330Z,61.21
2023-04-27T07:53:18.758Z,62.63
2023-04-27T07:54:19.616Z,64.03
2023-04-27T07:55:20.458Z,64.69
2023-04-27T07:55:36.446Z,64.24
2023-04-27T07:56:37.200Z,63.70
2023-04-27T07:57:38.084Z,64.63
2023-04-27T07:58:38.546Z,65.04
2023-04-27T07:59:38.804Z,65.08
2023-04-27T08:00:39.325Z,64.96
2023-04-27T08:01:39.823Z,64.96
2023-04-27T08:02:41.628Z,66.52
2023-04-27T08:03:40.872Z,65.88
2023-04-27T08:04:40.748Z,63.88
2023-04-27T08:05:41.374Z,63.48
2023-04-27T08:05:52.128Z,66.01
2023-04-27T08:06:52.335Z,66.09
2023-04-27T08:07:52.270Z,67.61
2023-04-27T08:08:53.074Z,68.52
2023-04-27T08:09:53.429Z,66.96
2023-04-27T08:10:54.258Z,67.99
2023-04-27T08:11:55.227Z,65.74
2023-04-27T08:12:55.866Z,66.73
2023-04-27T08:14:25.616Z,67.40
2023-04-27T08:15:25.568Z,67.66
2023-04-27T08:16:26.091Z,70.83
2023-04-27T08:17:26.426Z,69.35
2023-04-27T08:18:27.374Z,70.35
2023-04-27T08:19:28.274Z,70.73
2023-04-27T08:20:28.941Z,73.54
2023-04-27T08:21:29.199Z,74.44
2023-04-27T08:22:29.233Z,72.82
2023-04-27T08:23:30.085Z,73.30
2023-04-27T08:24:30.726Z,69.67
2023-04-27T08:25:31.054Z,70.70
2023-04-27T08:26:31.982Z,73.32
2023-04-27T08:27:32.663Z,74.72
2023-04-27T08:28:34.347Z,72.59
2023-04-27T08:29:34.284Z,71.92
2023-04-27T08:30:35.496Z,68.81
2023-04-27T08:30:45.141Z,67.76
2023-04-27T08:31:45.301Z,68.15
2023-04-27T08:32:45.774Z,71.95
2023-04-27T08:33:45.882Z,74.24
2023-04-27T08:34:46.767Z,72.95
2023-04-27T08:35:46.967Z,69.53
2023-04-27T08:36:47.847Z,73.16
2023-04-27T08:37:49.740Z,74.91
2023-04-27T08:38:49.573Z,72.22
2023-04-27T08:39:49.819Z,70.81
2023-04-27T08:40:03.363Z,72.14
2023-04-27T08:41:18.082Z,72.23
2023-04-27T08:42:03.728Z,70.56
2023-04-27T08:43:04.725Z,70.20
2023-04-27T08:44:04.897Z,69.98
2023-04-27T08:45:05.044Z,74.50
2023-04-27T08:46:05.356Z,76.83
2023-04-27T08:47:06.196Z,75.79
2023-04-27T08:48:06.406Z,77.17
2023-04-27T08:49:06.992Z,77.83
2023-04-27T08:50:07.822Z,79.50
2023-04-27T08:50:21.405Z,77.71
2023-04-27T08:51:21.504Z,77.40
2023-04-27T08:52:22.399Z,76.19
2023-04-27T08:53:22.484Z,78.28
2023-04-27T08:54:23.700Z,81.20
2023-04-27T08:55:23.601Z,79.56
2023-04-27T08:56:23.704Z,77.87
2023-04-27T08:57:24.210Z,75.83
2023-04-27T08:58:24.554Z,76.52
2023-04-27T08:59:25.386Z,77.48
2023-04-27T09:00:26.644Z,77.66
2023-04-27T09:01:26.456Z,76.01
2023-04-27T09:01:39.550Z,71.27
2023-04-27T09:02:39.669Z,71.68
2023-04-27T09:03:40.147Z,73.09
2023-04-27T09:04:40.328Z,73.16
2023-04-27T09:05:49.492Z,74.22
2023-04-27T09:06:41.578Z,76.62
2023-04-27T09:07:41.780Z,76.99
2023-04-27T09:08:41.979Z,77.54
2023-04-27T09:09:42.875Z,78.62
2023-04-27T09:10:43.720Z,76.28
2023-04-27T09:10:53.392Z,78.97
2023-04-27T09:11:56.789Z,79.47
2023-04-27T09:12:55.154Z,79.59
2023-04-27T09:13:56.032Z,75.44
2023-04-27T09:14:56.773Z,75.13
2023-04-27T09:15:57.299Z,73.40
2023-04-27T09:16:58.191Z,72.12
2023-04-27T09:17:58.708Z,71.54
2023-04-27T09:18:59.266Z,73.81
2023-04-27T09:19:59.452Z,74.36
2023-04-27T09:20:59.529Z,73.50
2023-04-27T09:21:59.900Z,73.58
2023-04-27T09:23:00.498Z,72.55
2023-04-27T09:24:01.040Z,71.67
2023-04-27T09:25:02.071Z,69.88
2023-04-27T09:26:02.480Z,69.56
2023-04-27T09:27:02.758Z,68.70
2023-04-27T09:27:12.143Z,70.24
2023-04-27T09:28:12.278Z,70.29
2023-04-27T09:29:13.298Z,74.51
2023-04-27T09:30:13.669Z,71.96
2023-04-27T09:31:14.213Z,73.27
2023-04-27T09:32:16.617Z,74.09
2023-04-27T09:33:14.853Z,73.31
2023-04-27T09:34:15.678Z,75.53
2023-04-27T09:35:16.421Z,67.57
2023-04-27T09:36:17.253Z,67.16
2023-04-27T09:37:17.818Z,70.32
2023-04-27T09:38:18.156Z,70.74
2023-04-27T09:39:18.985Z,69.00
2023-04-27T09:39:28.282Z,69.69
2023-04-27T09:40:29.844Z,71.53
2023-04-27T09:41:29.666Z,69.19
2023-04-27T09:42:30.618Z,68.07
2023-04-27T09:43:31.332Z,67.84
2023-04-27T09:44:32.560Z,67.17
2023-04-27T09:45:32.274Z,67.61
2023-04-27T09:46:33.102Z,65.75
2023-04-27T09:47:39.652Z,67.06
2023-04-27T09:48:35.378Z,72.69
2023-04-27T09:49:35.206Z,71.26
2023-04-27T09:50:37.396Z,67.43
2023-04-27T09:51:36.088Z,70.92
2023-04-27T09:52:36.279Z,74.27
2023-04-27T09:53:37.086Z,67.49
2023-04-27T09:53:53.798Z,70.13
2023-04-27T09:54:54.528Z,70.77
2023-04-27T09:55:54.845Z,65.52
2023-04-27T09:56:55.548Z,63.76
2023-04-27T09:57:56.272Z,60.03
2023-04-27T09:58:59.674Z,60.93
2023-04-27T09:59:57.574Z,59.36
2023-04-27T10:00:58.519Z,62.39
2023-04-27T10:02:02.792Z,62.79
2023-04-27T10:02:58.843Z,59.66
2023-04-27T10:03:59.769Z,59.61
2023-04-27T10:05:00.014Z,59.71
2023-04-27T10:05:27.191Z,60.40
2023-04-27T10:06:28.143Z,60.63
2023-04-27T10:07:27.973Z,58.09
2023-04-27T10:08:27.956Z,56.94
2023-04-27T10:09:31.568Z,55.92
2023-04-27T10:10:29.265Z,61.80
2023-04-27T10:11:30.113Z,64.36
2023-04-27T10:12:30.856Z,64.90
2023-04-27T10:13:31.099Z,60.09
2023-04-27T10:14:32.002Z,61.55
2023-04-27T10:15:32.973Z,63.28
2023-04-27T10:16:33.836Z,60.68
2023-04-27T10:16:48.397Z,61.23
2023-04-27T10:17:48.410Z,61.47
2023-04-27T10:18:48.389Z,62.17
2023-04-27T10:19:49.703Z,63.52
2023-04-27T10:20:49.219Z,61.90
2023-04-27T10:21:50.729Z,62.70
2023-04-27T10:22:50.320Z,62.22
2023-04-27T10:23:50.579Z,59.42
2023-04-27T10:24:51.389Z,59.37
2023-04-27T10:25:51.487Z,63.17
2023-04-27T10:26:51.925Z,61.65
2023-04-27T10:27:53.778Z,59.83
2023-04-27T10:28:54.652Z,58.50
2023-04-27T10:29:54.334Z,55.89
2023-04-27T10:30:12.709Z,56.92
2023-04-27T10:31:13.658Z,57.18
2023-04-27T10:32:13.922Z,60.12
2023-04-27T10:33:14.595Z,60.70
2023-04-27T10:34:14.743Z,61.45
2023-04-27T10:35:14.942Z,56.22
2023-04-27T10:36:14.988Z,55.44
2023-04-27T10:37:15.349Z,55.26
2023-04-27T10:38:16.218Z,58.52
2023-04-27T10:39:17.072Z,58.16
2023-04-27T10:40:17.680Z,60.65
2023-04-27T10:41:18.309Z,60.97
2023-04-27T10:41:27.526Z,60.67
2023-04-27T10:42:28.472Z,60.98
2023-04-27T10:43:28.760Z,64.64
2023-04-27T10:44:29.188Z,64.75
2023-04-27T10:45:31.712Z,61.66
2023-04-27T10:46:29.669Z,60.25
2023-04-27T10:47:30.478Z,60.58
2023-04-27T10:48:30.750Z,61.10
2023-04-27T10:49:31.576Z,60.05
2023-04-27T10:50:31.868Z,59.93
2023-04-27T10:51:32.257Z,60.39
2023-04-27T10:52:33.088Z,58.23
2023-04-27T10:53:33.306Z,59.85
2023-04-27T10:53:46.926Z,61.80
2023-04-27T10:54:47.787Z,62.00
2023-04-27T10:55:49.257Z,59.48
2023-04-27T10:56:49.065Z,59.58
2023-04-27T10:57:49.462Z,59.16
2023-04-27T10:58:50.324Z,58.35
2023-04-27T10:59:50.843Z,55.52
2023-04-27T11:00:51.655Z,57.15
2023-04-27T11:01:52.426Z,56.01
2023-04-27T11:02:53.288Z,56.69
2023-04-27T11:03:53.677Z,58.89
2023-04-27T11:04:54.065Z,57.88
2023-04-27T11:05:05.702Z,59.18
2023-04-27T11:06:06.408Z,59.38
2023-04-27T11:07:06.760Z,59.78
2023-04-27T11:08:07.622Z,59.58
2023-04-27T11:09:08.400Z,61.13
2023-04-27T11:10:09.435Z,58.91
2023-04-27T11:11:10.205Z,55.75
2023-04-27T11:12:11.481Z,54.79
2023-04-27T11:13:11.427Z,56.29
2023-04-27T11:14:13.400Z,56.76
2023-04-27T11:15:12.788Z,57.90
2023-04-27T11:16:14.694Z,58.30
2023-04-27T11:17:16.740Z,61.43
2023-04-27T11:18:15.726Z,61.78
2023-04-27T11:19:15.804Z,62.96
2023-04-27T11:20:15.745Z,61.22
2023-04-27T11:21:16.520Z,56.48
2023-04-27T11:22:17.484Z,55.54
2023-04-27T11:23:17.791Z,57.82
2023-04-27T11:24:18.695Z,58.12
2023-04-27T11:25:18.938Z,55.17
2023-04-27T11:26:20.176Z,55.45
2023-04-27T11:27:20.369Z,56.28
2023-04-27T11:28:20.318Z,55.16
2023-04-27T11:29:21.097Z,54.77
2023-04-27T11:29:40.631Z,58.18
2023-04-27T11:30:40.340Z,58.22
2023-04-27T11:31:41.212Z,55.63
2023-04-27T11:32:42.139Z,53.73
2023-04-27T11:33:42.347Z,57.37
2023-04-27T11:34:43.450Z,60.70
2023-04-27T11:36:24.579Z,54.46
2023-04-27T11:37:24.269Z,54.20
2023-04-27T11:38:25.185Z,57.27
2023-04-27T11:39:25.941Z,61.13
2023-04-27T11:40:26.811Z,60.68
2023-04-27T11:41:57.492Z,54.37
2023-04-27T11:42:58.382Z,54.96
2023-04-27T11:43:59.226Z,57.61
2023-04-27T11:44:59.569Z,60.51
2023-04-27T11:46:00.403Z,59.83
2023-04-27T11:47:01.207Z,59.37
2023-04-27T11:48:01.661Z,59.19
2023-04-27T11:49:01.735Z,57.94
2023-04-27T11:50:02.317Z,60.20
2023-04-27T11:51:02.392Z,59.46
2023-04-27T11:52:03.412Z,59.89
2023-04-27T11:53:03.509Z,57.87
2023-04-27T11:54:04.558Z,55.84
2023-04-27T11:55:04.644Z,53.76
2023-04-27T11:56:05.043Z,52.64
2023-04-27T11:56:26.734Z,54.69
2023-04-27T11:57:26.505Z,54.80
2023-04-27T11:58:26.732Z,56.45
2023-04-27T11:59:27.749Z,57.24